Tiempo atmosférico en la estación meteorológica de Palacios De La Sierra, Burgos (1080 m.)



Fecha
DESCASC
Temp. máxima en grados centígrados (hora)
DESCASC
Temp. mínima en grados centígrados (hora)
DESCASC
Temp. media en grados centígrados
DESCASC
Racha de viento máxima en m/sg (hora)
DESCASC
Velocidad máxima media en intervalos de 10 minutos(hora)
DESCASC
Precipitaciones diarias en mm
DESCASC
Precipitaciones de 00:00 a 06:00 en mm
DESCASC
Precipitaciones de 06:00 a 12:00 en mm
DESCASC
Precipitaciones de 12:00 a 18:00 en mm
DESCASC
Precipitaciones de 18:00 a 24:00 en mm
DESCASC
17-10-2019 15.6 (18:40) 8.1 (06:30) 11.9 5.83 (12:50) 3.06 (15:50) 3 0.2 2.2 0.6 0
16-10-2019 17 (17:20) 5.2 (04:20) 11.1 9.17 (13:00) 5.28 (15:10) 0 0 0 0 0
15-10-2019 12.2 (16:30) 3.8 (07:50) 8 11.11 (17:20) 5.83 (00:30) 0 0 0 0 0
14-10-2019 18.6 (12:30) 6 (23:50) 12.3 16.67 (18:00) 7.78 (18:30) 8 0 0 1.4 6.6
13-10-2019 23.5 (16:30) 12.5 (00:00) 18 12.78 (14:10) 6.39 (15:00) 0 0 0 0 0
12-10-2019 24.5 (17:50) 12.6 (00:00) 18.6 12.5 (23:59) 5 (17:20) 0.2 0 0 0.2 0
11-10-2019 26.2 (15:20) 6.8 (00:00) 16.5 8.61 (14:50) 4.17 (05:40) 0 0 0 0 0
10-10-2019 23.8 (17:10) 1.4 (00:00) 12.6 6.11 (12:50) 3.89 (08:30) 0 0 0 0 0
09-10-2019 21.8 (16:50) 6.7 (00:00) 14.2 7.22 (16:10) 4.72 (01:00) 0 0 0 0 0
08-10-2019 27.3 (16:40) 5.6 (00:00) 16.4 7.78 (16:00) 3.89 (16:00) 0 0 0 0 0
07-10-2019 24.7 (16:10) 2.7 (00:00) 13.7 10.83 (16:20) 6.11 (16:20) 0 0 0 0 0
06-10-2019 21.9 (17:00) 2.6 (00:00) 12.2 9.44 (18:20) 5.28 (18:40) 0 0 0 0 0
05-10-2019 24.6 (16:40) 3.5 (00:00) 14.1 7.5 (16:50) 3.61 (13:00) 0 0 0 0 0
04-10-2019 23.9 (16:20) 3.1 (00:00) 13.5 7.78 (16:40) 3.89 (17:30) 0 0 0 0 0
03-10-2019 21.9 (17:10) 0.9 (00:00) 11.4 10.56 (16:00) 4.72 (15:20) 0 0 0 0 0
02-10-2019 18.8 (16:20) 4.4 (00:00) 11.6 11.11 (15:50) 6.11 (15:40) 0 0 0 0 0
01-10-2019 21.6 (16:30) 6.9 (00:00) 14.3 10.28 (14:40) 5.83 (17:40) 0 0 0 0 0
30-09-2019 25.7 (16:30) 5.3 (00:00) 15.5 6.94 (16:50) 4.17 (07:50) 0 0 0 0 0
29-09-2019 25.4 (17:20) 4.3 (00:00) 14.8 9.44 (15:00) 5 (15:00) 0 0 0 0 0
28-09-2019 25.1 (16:50) 4.1 (00:00) 14.6 6.39 (16:50) 3.61 (20:40) 0 0 0 0 0
27-09-2019 23.2 (17:00) 3.9 (00:00) 13.6 9.44 (16:30) 4.72 (14:40) 0 0 0 0 0
26-09-2019 24.1 (17:40) 5.3 (00:00) 14.7 9.17 (17:00) 4.44 (17:00) 0 0 0 0 0
25-09-2019 18.8 (16:30) 6.1 (00:00) 12.4 7.5 (17:00) 3.89 (00:30) 0 0 0 0 0
24-09-2019 18.4 (17:50) 5.7 (00:00) 12 10 (11:20) 5.56 (11:20) 0 0 0 0 0
23-09-2019 20.2 (18:10) 3.8 (00:00) 12 6.67 (13:50) 3.61 (17:30) 0 0 0 0 0
22-09-2019 17.3 (16:00) 8.6 (00:00) 12.9 10.28 (14:40) 5 (14:50) 5.2 3 2.2 0 0
21-09-2019 18.8 (14:00) 12 (00:00) 15.4 8.33 (18:30) 3.89 (15:20) 5.4 5 0.4 0 0
20-09-2019 23.9 (16:20) 12.3 (00:00) 18.1 13.33 (19:20) 7.22 (20:10) 1.8 0 0 0 1.8

Gráficas

Temp. máximas Temp. mínimas Temp. medias Precipitaciones Rachas de viento máximas Velocidades máximas media en intervalos de 10 minutos

Datos horarios

Fecha y hora oficial Temperatura (ºC) Velocidad del viento (km/h) Dirección del viento Racha (km/h) Dirección de racha Precipitación (mm) Presión (hPa) Tendencia (hPa) Humedad (%)
2019-10-19 23:00:00 10.4 13 Sudeste 23 Sudeste 1.4 883.4 -0.8 86
2019-10-19 22:00:00 10.6 5 Sudeste 14 Sudeste 1.2 883.7 -0.1 86
2019-10-19 21:00:00 10.8 3 Sur 21 Sudoeste 0.2 884.2 0.1 82
2019-10-19 20:00:00 11.3 5 Sudeste 42 Sudeste 0.4 884.2 -0.4 79
2019-10-19 19:00:00 13 14 Sudeste 32 Sudeste 0 883.8 -1.2 63
2019-10-19 18:00:00 14.2 15 Sudeste 31 Este 0 884.1 -1.8 54
2019-10-19 17:00:00 15 10 Sur 26 Sudeste 0 884.6 -2 49
2019-10-19 16:00:00 14.8 11 Sudeste 30 Este 0 885 -2.6 54
2019-10-19 15:00:00 14.2 12 Sudeste 30 Este 0 885.9 -2.5 55
2019-10-19 14:00:00 13.3 13 Sudeste 30 Sudoeste 0 886.6 -1.7 61
2019-10-19 13:00:00 12.6 6 Sur 25 Sudeste 0 887.6 -1.1 65
2019-10-19 12:00:00 10.7 7 Sur 17 Sur 0 888.4 -0.4 73
2019-10-19 11:00:00 10.1 5 Sur 11 Sur 0 888.3 -0.6 78
2019-10-19 10:00:00 9.4 2 Sur 15 Oeste 0 888.7 -0.4 85
2019-10-19 09:00:00 9.3 3 Sudoeste 12 Este 0 888.8 -0.7 85
2019-10-19 08:00:00 9.2 5 Oeste 12 Oeste 0 888.9 -0.7 84
2019-10-19 07:00:00 9.3 3 Sudoeste 15 Oeste 0 889.1 -0.9 82
2019-10-19 06:00:00 9.6 8 Oeste 21 Oeste 0 889.5 -1.1 78
2019-10-19 05:00:00 9.3 8 Sudoeste 13 Sudoeste 0 889.6 -1.5 80
2019-10-19 04:00:00 9.8 6 Sudoeste 14 Oeste 0 890 -1.5 75
2019-10-19 03:00:00 10.2 8 Oeste 11 Oeste 0 890.6 -0.9 79
2019-10-19 02:00:00 10.5 7 Oeste 17 Oeste 0 891.1 -1.1 79
2019-10-19 01:00:00 10.9 5 Oeste 14 Oeste 0 891.5 -0.5 82
2019-10-19 00:00:00 10.9 3 Sur 10 Oeste 0 891.5 -0.9 83
2019-10-18 23:00:00 10.9 5 Sudoeste 13 Sudoeste 0 892.2 -0.1 82
2019-10-18 22:00:00 11.4 8 Sudoeste 17 Oeste 0 892 -0.3 78
2019-10-18 21:00:00 11.2 6 Sudoeste 10 Sur 0 892.4 -0.5 84
2019-10-18 20:00:00 12 4 Sudoeste 11 Oeste 0 892.3 -1.2 80
2019-10-18 19:00:00 13 7 Oeste 19 Noroeste 0 892.3 -1.6 72
2019-10-18 18:00:00 14.7 5 Sudoeste 17 Oeste 0 892.9 -1.4 65
2019-10-18 17:00:00 14.3 8 Oeste 26 Oeste 0 893.5 -1.3 66
2019-10-18 16:00:00 14.4 9 Oeste 33 Oeste 0 893.9 -1.4 67
2019-10-18 15:00:00 14.9 17 Oeste 38 Noroeste 0 894.3 -1 67
2019-10-18 14:00:00 13.7 6 Oeste 20 Oeste 0 894.8 -0.4 77
2019-10-18 13:00:00 12.4 4 Oeste 22 Oeste 0 895.3 0.1 80
2019-10-18 12:00:00 12.1 4 Noroeste 20 Noroeste 0 895.3 0.7 82
2019-10-18 11:00:00 12.2 8 Noroeste 15 Noroeste 0 895.2 1 82
2019-10-18 10:00:00 11.3 7 Oeste 14 Oeste 0 895.2 0.9 86
2019-10-18 09:00:00 11.2 3 Oeste 7 Oeste 0 894.6 0.5 92
2019-10-18 08:00:00 11.3 2 Sudoeste 6 Norte 0 894.2 0.1 92
2019-10-18 07:00:00 11.2 3 Norte 17 Noroeste 1 894.3 0.4 93
2019-10-18 06:00:00 11.4 7 Norte 15 Norte 1.4 894.1 -0.2 93
2019-10-18 05:00:00 11.8 8 Oeste 28 Noroeste 8.2 894.1 -0.9 92
2019-10-18 04:00:00 11.7 6 Sudeste 12 Sur 4.6 893.9 -1.1 92
2019-10-18 03:00:00 11.5 4 Sur 16 Sur 0.2 894.3 -1.2 91
2019-10-18 02:00:00 11.6 8 Sur 18 Sur 1.4 895 -0.6 90
2019-10-18 01:00:00 11.7 6 Sur 14 Sur 0.2 895 -0.2 90
2019-10-18 00:00:00 11.8 6 Sur 18 Sudoeste 0 895.5 0 88
2019-10-17 23:00:00 11.7 6 Sur 12 Sudeste 0 895.6 0.4 91
2019-10-17 22:00:00 11 8 Sur 13 Sur 0 895.2 0.1 91
2019-10-17 21:00:00 11.5 6 Sur 12 Sur 0 895.5 0.6 89
2019-10-17 20:00:00 12.3 6 Sur 12 Sudoeste 0 895.2 0.2 86
2019-10-17 19:00:00 14 8 Oeste 17 Sudoeste 0 895.1 -0.1 78
2019-10-17 18:00:00 14.7 6 Oeste 18 Sudoeste 0 894.9 -0.8 80
2019-10-17 17:00:00 14.5 3 Norte 19 Sudoeste 0 895 -1.1 83
2019-10-17 16:00:00 14.1 8 Oeste 20 Oeste 0.4 895.2 -1 82
2019-10-17 15:00:00 11.9 6 Oeste 20 Sudoeste 0.2 895.7 -0.4 91
2019-10-17 14:00:00 11.1 2 Nordeste 11 Nordeste 0 896.1 0.1 92
2019-10-17 13:00:00 10 7 Nordeste 21 Este 0 896.2 0.6 92
2019-10-17 12:00:00 9.5 5 Este 9 Nordeste 0.2 896.1 1.1 92
2019-10-17 11:00:00 9.1 5 Este 10 Sudeste 0.6 896 1.2 92
2019-10-17 10:00:00 8.7 5 Este 12 Este 0.2 895.6 1.1 92
2019-10-17 09:00:00 8.4 6 Este 11 Este 0.2 895 0.7 92
2019-10-17 08:00:00 8.2 5 Este 8 Sudeste 0.4 894.8 -0.1 91
2019-10-17 07:00:00 8.2 3 Sudeste 9 Sur 0.6 894.5 -0.4 89
2019-10-17 06:00:00 8.2 5 Sur 8 Sur 0.2 894.3 -1.1 83
2019-10-17 05:00:00 8.4 3 Noroeste 11 Sur 0 894.9 -0.9 80
2019-10-17 04:00:00 8.8 4 Sur 9 Sur 0 894.9 -1.1 76
2019-10-17 03:00:00 9.9 5 Sur 9 Sudoeste 0 895.4 -0.8 69
2019-10-17 02:00:00 10.5 5 Sur 14 Sudoeste 0 895.8 -0.2 67
2019-10-17 01:00:00 10.9 5 Sudoeste 15 Sudoeste 0 896 0.2 61
2019-10-17 00:00:00 10 4 Sudeste 11 Sur 0 896.2 0.7 64
2019-10-16 23:00:00 10.4 2 Sudeste 7 Este 0 896 0.5 68
2019-10-16 22:00:00 10.5 2 Este 7 Sur 0 895.8 0.9 62
2019-10-16 21:00:00 11.4 2 Nordeste 8 Sur 0 895.5 0.6 59
2019-10-16 20:00:00 11.8 7 Sur 11 Sudeste 0 895.5 0.3 53
2019-10-16 19:00:00 14.4 4 Oeste 20 Sudoeste 0 894.9 -0.8 40
2019-10-16 18:00:00 15.6 12 Oeste 24 Sudoeste 0 894.9 -1.4 42
2019-10-16 17:00:00 15.8 15 Sudoeste 26 Sudoeste 0 895.2 -1.6 42
2019-10-16 16:00:00 15 5 Oeste 33 Noroeste 0 895.7 -1.3 48
2019-10-16 15:00:00 14.6 12 Oeste 31 Sudoeste 0 896.3 -1.3 48
2019-10-16 14:00:00 14.2 9 Oeste 31 Oeste 0 896.8 -0.8 52
2019-10-16 13:00:00 12.9 15 Oeste 33 Noroeste 0 897 -0.9 54
2019-10-16 12:00:00 10.4 11 Oeste 28 Sudoeste 0 897.6 0.2 67
2019-10-16 11:00:00 10.6 8 Oeste 24 Oeste 0 897.6 0.6 69
2019-10-16 10:00:00 8.5 2 Norte 6 Norte 0 897.9 1 80
2019-10-16 09:00:00 5.7 4 Sur 9 Sur 0 897.4 0.4 89
2019-10-16 08:00:00 5.5 7 Sur 10 Sur 0 897 -0.1 87
2019-10-16 07:00:00 5.7 2 Sur 8 Sur 0 896.9 -0.5 87
2019-10-16 06:00:00 5.5 2 Sudoeste 10 Sudoeste 0 897 -0.8 88
2019-10-16 05:00:00 5.2 4 Sudoeste 12 Sudoeste 0 897.1 -1 88
2019-10-16 04:00:00 5.4 3 Sur 6 Sur 0 897.4 -0.7 87
2019-10-16 03:00:00 5.9 3 Sudeste 10 Sur 0 897.8 -0.3 84
2019-10-16 02:00:00 6 3 Sur 6 Sur 0 898.1 0.1 83
2019-10-16 01:00:00 6.5 3 Este 12 Sur 0 898.1 0.1 79
2019-10-16 00:00:00 6.9 2 Sudoeste 10 Sur 0 898.1 0.5 77
2019-10-15 23:00:00 6.6 0 Calma 11 Sudoeste 0 898 0.5 79
2019-10-15 22:00:00 6.5 2 Sudoeste 11 Sudoeste 0 898 0.6 77
2019-10-15 21:00:00 8 9 Sudoeste 18 Oeste 0 897.6 0.4 65
2019-10-15 20:00:00 9.4 8 Oeste 19 Sudoeste 0 897.5 0.2 58
2019-10-15 19:00:00 10 10 Oeste 25 Noroeste 0 897.4 0.1 54
2019-10-15 18:00:00 11.2 11 Oeste 40 Oeste 0 897.2 0 51
2019-10-15 17:00:00 11.7 13 Oeste 30 Oeste 0 897.3 -0.8 49
2019-10-15 16:00:00 10.5 18 Oeste 32 Sudoeste 0 897.3 -1 56
2019-10-15 15:00:00 10.3 17 Oeste 32 Oeste 0 897.2 -1.1 58
2019-10-15 14:00:00 8.7 9 Oeste 20 Oeste 0 898.1 0.4 67
2019-10-15 13:00:00 6.7 9 Oeste 20 Sudoeste 0 898.3 1.2 76
2019-10-15 12:00:00 6.7 6 Oeste 21 Noroeste 0 898.3 1.9 75
2019-10-15 11:00:00 5.1 9 Oeste 26 Oeste 0 897.7 1.8 82
2019-10-15 10:00:00 4.5 8 Oeste 24 Oeste 0 897.1 1.4 86
2019-10-15 09:00:00 3.9 10 Oeste 17 Oeste 0 896.4 1.2 87
2019-10-15 08:00:00 3.8 7 Oeste 18 Noroeste 0 895.9 1.1 87
2019-10-15 07:00:00 4.1 8 Noroeste 15 Noroeste 0 895.7 1.1 86
2019-10-15 06:00:00 4.3 6 Noroeste 21 Oeste 0 895.2 0.7 85
2019-10-15 05:00:00 4.4 10 Oeste 24 Oeste 0 894.8 0.8 84
2019-10-15 04:00:00 4.7 12 Oeste 24 Oeste 0 894.6 0.9 84
2019-10-15 03:00:00 4.7 12 Oeste 29 Noroeste 0 894.5 1.5 85
2019-10-15 02:00:00 5 13 Oeste 31 Oeste 0 894 1.4 85
2019-10-15 01:00:00 5.1 13 Oeste 36 Oeste 0 893.7 1.7 81
2019-10-15 00:00:00 6 15 Oeste 36 Oeste 0.2 893 1.2 87
2019-10-14 23:00:00 6.5 15 Oeste 37 Oeste 0 892.6 0.6 84
2019-10-14 22:00:00 7 18 Oeste 35 Oeste 0 892 0.2 85
2019-10-14 21:00:00 7.2 13 Oeste 30 Oeste 0.8 891.8 1.7 86
2019-10-14 20:00:00 7.1 9 Oeste 29 Oeste 4.2 892 2.8 84
2019-10-14 19:00:00 7.4 13 Oeste 52 Oeste 1.4 891.8 2.8 83
2019-10-14 18:00:00 11.3 27 Oeste 60 Noroeste 0 890.1 0.5 66
2019-10-14 17:00:00 14.6 16 Oeste 41 Oeste 0 889.2 -1.3 52
2019-10-14 16:00:00 16.6 21 Oeste 48 Oeste 0 889 -1.5 44
2019-10-14 15:00:00 15.4 13 Oeste 34 Oeste 0 889.6 0.3 59
2019-10-14 14:00:00 13.5 13 Oeste 45 Oeste 0 890.5 1.2 66
2019-10-14 13:00:00 12.6 21 Oeste 48 Oeste 1.4 890.5 1.3 78
2019-10-14 12:00:00 17 27 Sudoeste 48 Sudoeste 0 889.3 -0.1 45
2019-10-14 11:00:00 16.5 9 Sur 34 Sur 0 889.3 0.4 55
2019-10-14 10:00:00 15.4 11 Sudeste 34 Sudeste 0 889.2 0 63
2019-10-14 09:00:00 15.4 11 Sudeste 26 Sudeste 0 889.4 0.2 61
2019-10-14 08:00:00 14.8 5 Sudeste 19 Sudeste 0 888.9 -0.7 61
2019-10-14 07:00:00 15.2 8 Sudeste 24 Sudeste 0 889.2 -1 58
2019-10-14 06:00:00 15.4 13 Sudeste 36 Este 0 889.2 -2 55
2019-10-14 05:00:00 15.1 7 Sudeste 20 Sudeste 0 889.6 -2.3 50
2019-10-14 04:00:00 13.4 9 Sur 17 Sur 0 890.2 -2.4 61
2019-10-14 03:00:00 11.2 9 Sur 13 Sur 0 891.2 -2.1 68
2019-10-14 02:00:00 11.9 5 Sur 9 Sudeste 0 891.9 -1.7 64
2019-10-14 01:00:00 12.3 6 Sudeste 9 Sudeste 0 892.6 -0.8 64
2019-10-14 00:00:00 13 4 Sudeste 7 Sudeste 0 893.3 0.2 61
2019-10-13 23:00:00 13.9 0 Calma 12 Sudoeste 0 893.6 0.4 59
2019-10-13 22:00:00 15.2 3 Oeste 19 Sur 0 893.4 0.5 54
2019-10-13 21:00:00 16.9 3 Sudeste 26 Sudeste 0 893.1 0.1 43
2019-10-13 20:00:00 18.4 9 Sudeste 30 Sudeste 0 893.2 0.2 35
2019-10-13 19:00:00 20.4 9 Sur 35 Sudoeste 0 892.9 -0.1 29
2019-10-13 18:00:00 21.4 19 Sudoeste 40 Sur 0 893 -0.2 24
2019-10-13 17:00:00 22.1 21 Sudoeste 39 Sudoeste 0 893 -0.5 25
2019-10-13 16:00:00 23.1 15 Sur 46 Sur 0 893 -1 25
2019-10-13 15:00:00 22.4 23 Sudoeste 46 Sudeste 0 893.2 -1.1 25
2019-10-13 14:00:00 22.5 12 Sur 37 Sudoeste 0 893.5 -1 30
2019-10-13 13:00:00 21.4 13 Sur 32 Sur 0 894 -0.4 33
2019-10-13 12:00:00 20 9 Sur 34 Sudoeste 0 894.3 0.1 45
2019-10-13 11:00:00 17.7 10 Sudeste 25 Sudeste 0 894.5 0.9 62
2019-10-13 10:00:00 15.4 8 Sudeste 19 Sudeste 0 894.4 0.9 71
2019-10-13 09:00:00 12.9 8 Este 17 Este 0 894.2 0.8 76
2019-10-13 08:00:00 12.9 10 Este 26 Sudeste 0 893.6 0.2 71
2019-10-13 07:00:00 13.7 4 Sudeste 20 Sur 0 893.5 -0.5 64
2019-10-13 06:00:00 12.6 3 Oeste 11 Sudeste 0 893.4 -1.1 62
2019-10-13 05:00:00 13.5 4 Sudeste 13 Sudeste 0 893.4 -1.6 59
2019-10-13 04:00:00 14.4 6 Sudeste 14 Este 0 894 -1 56
2019-10-13 03:00:00 15.8 6 Sudeste 36 Sudeste 0 894.5 -0.8 51
2019-10-13 02:00:00 17 15 Sudeste 34 Sudeste 0 895 0.2 45
2019-10-13 01:00:00 17.1 11 Sudeste 36 Sur 0 895 0.4 46
2019-10-13 00:00:00 17.8 10 Sur 45 Sur 0 895.3 0.7 44
2019-10-12 23:00:00 18.2 3 Sudeste 15 Sur 0 894.8 0.8 45
2019-10-12 22:00:00 18.6 4 Sur 14 Sudeste 0 894.6 1 49
2019-10-12 21:00:00 18.7 3 Sudeste 19 Sur 0 894.6 0.8 43
2019-10-12 20:00:00 19.8 6 Sudoeste 23 Sur 0 894 0 40
2019-10-12 19:00:00 21.9 13 Sur 30 Sudoeste 0 893.6 -0.8 33
2019-10-12 18:00:00 24 5 Sudoeste 35 Oeste 0 893.8 -1.2 28
2019-10-12 17:00:00 23.1 17 Oeste 37 Oeste 0.2 894 -1.6 28
2019-10-12 16:00:00 22.8 9 Sudeste 28 Sudeste 0 894.4 -1.9 37
2019-10-12 15:00:00 23.4 12 Sudeste 31 Sudeste 0 895 -1.8 37
2019-10-12 14:00:00 22.3 13 Sudeste 31 Sur 0 895.6 -1 39
2019-10-12 13:00:00 21.2 8 Sudeste 22 Sudeste 0 896.3 0.2 48
2019-10-12 12:00:00 18.4 3 Sudeste 14 Sudoeste 0 896.8 0.9 57
2019-10-12 11:00:00 17.7 8 Sudeste 14 Sur 0 896.6 1 53
2019-10-12 10:00:00 14.1 3 Este 11 Este 0 896.1 0.6 72
2019-10-12 09:00:00 14.3 5 Sudeste 12 Este 0 895.9 0.3 69
2019-10-12 08:00:00 13.8 5 Sudeste 7 Este 0 895.6 0.1 71
2019-10-12 07:00:00 14 6 Sur 8 Sur 0 895.5 -0.3 71
2019-10-12 06:00:00 12.7 4 Este 9 Sudeste 0 895.6 -0.7 78
2019-10-12 05:00:00 13 5 Sudeste 18 Sur 0 895.5 -1.3 78
2019-10-12 04:00:00 13.9 9 Sur 23 Sur 0 895.8 -1.3 77
2019-10-12 03:00:00 14.3 6 Sur 16 Sur 0 896.3 -1 78
2019-10-12 02:00:00 14.6 4 Sudeste 12 Sur 0 896.8 -0.3 75
2019-10-12 01:00:00 14.9 8 Sur 12 Sur 0 897.1 0.5 74
2019-10-12 00:00:00 16 4 Sudeste 6 Sudeste 0 897.3 1 69
2019-10-11 23:00:00 16.8 3 Sudeste 9 Sudeste 0 897.1 1 64
2019-10-11 22:00:00 17.9 7 Sudeste 12 Este 0 896.6 0.7 58
2019-10-11 21:00:00 19 5 Sudeste 10 Noroeste 0 896.3 0.1 53
2019-10-11 20:00:00 21 3 Sudeste 8 Sur 0 896.1 -0.4 49
2019-10-11 19:00:00 23.3 0 Calma 10 Oeste 0 895.9 -1.2 45
2019-10-11 18:00:00 24.4 4 Sudoeste 19 Oeste 0 896.2 -1.6 35
2019-10-11 17:00:00 24.8 6 Sur 23 Oeste 0 896.5 -2.2 33
2019-10-11 16:00:00 25.4 15 Oeste 26 Sudoeste 0 897.1 -2.3 32
2019-10-11 15:00:00 25.7 9 Sudoeste 31 Sudoeste 0 897.8 -1.8 30
2019-10-11 14:00:00 24.9 10 Sur 25 Sur 0 898.7 -1 32
2019-10-11 13:00:00 23.4 9 Sur 24 Sudoeste 0 899.4 0.3 33
2019-10-11 12:00:00 20.8 4 Este 11 Este 0 899.6 0.5 49
2019-10-11 11:00:00 16.4 6 Este 10 Este 0 899.7 0.6 64
2019-10-11 10:00:00 10.2 6 Sur 15 Sur 0 899.1 0.3 82
2019-10-11 09:00:00 7.4 9 Sur 18 Sur 0 899.1 0.5 88
2019-10-11 08:00:00 8.1 9 Sur 16 Sur 0 899.1 0.1 88
2019-10-11 07:00:00 7 6 Sur 19 Sur 0 898.8 -0.1 89
2019-10-11 06:00:00 8 9 Sur 20 Sur 0 898.6 -0.5 88
2019-10-11 05:00:00 8.2 3 Sudeste 16 Sur 0 899 -0.2 85
2019-10-11 04:00:00 9.5 8 Sur 15 Sudeste 0 898.9 -0.5 81
2019-10-11 03:00:00 8.8 5 Sudeste 17 Sur 0 899.1 -0.5 83
2019-10-11 02:00:00 9.6 12 Sur 17 Sur 0 899.2 -0.2 80
2019-10-11 01:00:00 10.1 10 Sur 17 Sur 0 899.4 0.4 78
2019-10-11 00:00:00 10.1 2 Sudeste 10 Sudeste 0 899.6 1 76
2019-10-10 23:00:00 12.5 8 Sudeste 14 Sudeste 0 899.4 1.1 68
2019-10-10 22:00:00 12.1 8 Sur 18 Sur 0 899 0.8 68
2019-10-10 21:00:00 13.8 2 Sudeste 13 Sur 0 898.6 0.6 58
2019-10-10 20:00:00 17.6 8 Sur 12 Sudoeste 0 898.3 0.2 43
2019-10-10 19:00:00 21.6 5 Sudoeste 13 Sur 0 898.2 -0.4 32
2019-10-10 18:00:00 23.5 5 Sur 14 Sudeste 0 898 -0.9 28
2019-10-10 17:00:00 23.3 6 Sudoeste 17 Sur 0 898.1 -1.5 27
2019-10-10 16:00:00 22.7 5 Sudeste 18 Este 0 898.6 -1.4 32
2019-10-10 15:00:00 21.7 6 Este 21 Este 0 898.9 -1.4 34
2019-10-10 14:00:00 20.4 5 Sudeste 21 Sudeste 0 899.6 -0.8 36
2019-10-10 13:00:00 18.9 9 Sudeste 22 Este 0 900 -0.4 45
2019-10-10 12:00:00 16.5 5 Sur 14 Sur 0 900.3 0.4 55
2019-10-10 11:00:00 11.8 4 Sur 9 Sur 0 900.4 0.5 71
2019-10-10 10:00:00 7.2 6 Sur 11 Sur 0 900.4 0.9 84
2019-10-10 09:00:00 3.7 7 Sudeste 21 Sur 0 899.9 0.4 92
2019-10-10 08:00:00 2 2 Nordeste 13 Sur 0 899.9 0.6 92
2019-10-10 07:00:00 3.1 5 Sudeste 16 Sur 0 899.5 0 92
2019-10-10 06:00:00 2.6 2 Noroeste 17 Sur 0 899.5 -0.2 90
2019-10-10 05:00:00 3.5 3 Este 12 Sur 0 899.3 -0.5 89
2019-10-10 04:00:00 4.4 6 Sur 14 Sur 0 899.5 -0.3 90
2019-10-10 03:00:00 5.1 2 Sur 16 Sur 0 899.7 0.2 88
2019-10-10 02:00:00 6.1 13 Sur 16 Sur 0 899.8 0.7 90
2019-10-10 01:00:00 5.4 0 Calma 4 Noroeste 0 899.8 1.1 86
2019-10-10 00:00:00 6.7 2 Noroeste 6 Norte 0 899.5 1.3 83
2019-10-09 23:00:00 8.8 3 Oeste 11 Sur 0 899.1 1.6 78
2019-10-09 22:00:00 11.8 6 Sur 13 Sur 0 898.7 1.5 69
2019-10-09 21:00:00 12.4 8 Sur 15 Sur 0 898.2 1.2 65
2019-10-09 20:00:00 14.6 5 Sudeste 14 Oeste 0 897.5 0.3 47
2019-10-09 19:00:00 18.1 6 Oeste 22 Noroeste 0 897.2 -0.1 38
2019-10-09 18:00:00 20.6 10 Noroeste 23 Noroeste 0 897 -0.3 35
2019-10-09 17:00:00 21.4 12 Oeste 26 Noroeste 0 897.2 -0.6 32
2019-10-09 16:00:00 21.5 10 Noroeste 24 Oeste 0 897.3 -0.7 33
2019-10-09 15:00:00 20.4 8 Norte 24 Oeste 0 897.3 -0.8 39
2019-10-09 14:00:00 20.1 10 Noroeste 22 Norte 0 897.8 -0.5 44
2019-10-09 13:00:00 19 10 Noroeste 23 Noroeste 0 898 -0.1 48
2019-10-09 12:00:00 17.8 10 Noroeste 17 Oeste 0 898.1 1.1 59
2019-10-09 11:00:00 15.6 8 Noroeste 16 Noroeste 0 898.3 1.1 68
2019-10-09 10:00:00 11.8 2 Nordeste 7 Oeste 0 898.1 1 77
2019-10-09 09:00:00 7.9 2 Sudoeste 4 Norte 0 897 0.3 86
2019-10-09 08:00:00 8.3 0 Calma 4 Sur 0 897.2 1.1 83
2019-10-09 07:00:00 8.4 2 Oeste 8 Sudeste 0 897.1 0.6 83
2019-10-09 06:00:00 8.2 2 Este 17 Sur 0 896.7 -0.1 84
2019-10-09 05:00:00 8.6 5 Sudeste 19 Sur 0 896.1 -0.7 80
2019-10-09 04:00:00 9.9 6 Sur 13 Sur 0 896.5 -0.4 75
2019-10-09 03:00:00 10.2 13 Sur 18 Sur 0 896.8 -0.2 74
2019-10-09 02:00:00 11.3 7 Sudeste 19 Sur 0 896.8 -0.1 72
2019-10-09 01:00:00 10.5 17 Sur 21 Sur 0 896.9 -0.1 74
2019-10-09 00:00:00 11.9 6 Sur 15 Sur 0 897 0.2 70
2019-10-08 23:00:00 13.4 3 Sur 13 Sur 0 896.9 0.4 64
2019-10-08 22:00:00 14.7 5 Sur 9 Sur 0 897 0.6 59
2019-10-08 21:00:00 16.9 0 Calma 7 Sudoeste 0 896.8 0.4 50
2019-10-08 20:00:00 21.3 6 Oeste 14 Oeste 0 896.5 -0.1 35
2019-10-08 19:00:00 24.5 9 Oeste 20 Oeste 0 896.4 -0.5 29
2019-10-08 18:00:00 26.5 12 Oeste 23 Oeste 0 896.4 -0.7 26
2019-10-08 17:00:00 27.2 9 Oeste 27 Noroeste 0 896.6 -1.1 24
2019-10-08 16:00:00 26.6 14 Oeste 28 Noroeste 0 896.9 -1.5 25
2019-10-08 15:00:00 26.5 12 Noroeste 25 Noroeste 0 897.1 -1.7 26
2019-10-08 14:00:00 26.1 10 Noroeste 23 Oeste 0 897.7 -1.3 28
2019-10-08 13:00:00 24 4 Sudeste 10 Este 0 898.4 -0.7 32
2019-10-08 12:00:00 21.7 3 Nordeste 17 Nordeste 0 898.8 -0.4 40
2019-10-08 11:00:00 16.4 2 Sur 14 Sur 0 899 0 58
2019-10-08 10:00:00 11.2 3 Sudeste 11 Sur 0 899.1 0.2 71
2019-10-08 09:00:00 6.7 4 Sudeste 15 Sur 0 899.2 0.2 82
2019-10-08 08:00:00 6.1 7 Sur 15 Sur 0 899 0.1 85
2019-10-08 07:00:00 5.7 10 Sudeste 20 Sur 0 898.9 -0.5 85
2019-10-08 06:00:00 6.4 4 Sudeste 18 Sudeste 0 899 -0.5 81
2019-10-08 05:00:00 6.8 10 Sur 15 Sur 0 898.9 -0.8 79
2019-10-08 04:00:00 6.9 4 Sudeste 14 Sur 0 899.4 -0.6 79
2019-10-08 03:00:00 6.8 3 Este 10 Sur 0 899.5 -0.6 77
2019-10-08 02:00:00 7.9 6 Sur 17 Sur 0 899.7 -0.2 74
2019-10-08 01:00:00 8.6 3 Sudeste 11 Sudeste 0 900 0.4 71
2019-10-08 00:00:00 9.8 8 Sudeste 15 Sur 0 900.1 0.8 67
2019-10-07 23:00:00 10.8 5 Sudeste 14 Sur 0 899.9 0.9 62
2019-10-07 22:00:00 12.1 2 Este 10 Sur 0 899.6 1.1 57
2019-10-07 21:00:00 15.2 0 Calma 16 Oeste 0 899.3 0.9 46
2019-10-07 20:00:00 18.1 11 Oeste 17 Noroeste 0 899 0.6 38
2019-10-07 19:00:00 21.8 12 Noroeste 29 Noroeste 0 898.5 0 31
2019-10-07 18:00:00 23.6 19 Noroeste 36 Noroeste 0 898.4 -0.4 28
2019-10-07 17:00:00 24.1 21 Noroeste 39 Noroeste 0 898.4 -0.8 27
2019-10-07 16:00:00 24.5 17 Noroeste 33 Noroeste 0 898.5 -1.1 28
2019-10-07 15:00:00 23.8 17 Oeste 31 Oeste 0 898.8 -0.9 21
2019-10-07 14:00:00 22.5 17 Oeste 33 Oeste 0 899.2 -0.5 20
2019-10-07 13:00:00 20.8 13 Oeste 29 Oeste 0 899.6 0.2 24
2019-10-07 12:00:00 18.2 13 Oeste 25 Oeste 0 899.7 0.3 20
2019-10-07 11:00:00 13.5 5 Noroeste 19 Oeste 0 899.7 0.6 44
2019-10-07 10:00:00 8.8 0 Calma 6 Sudeste 0 899.4 0.7 75
2019-10-07 09:00:00 4 2 Nordeste 5 Norte 0 899.4 0.8 88
2019-10-07 08:00:00 2.9 3 Este 6 Norte 0 899.1 0.5 90
2019-10-07 07:00:00 3.1 2 Sudeste 6 Nordeste 0 898.7 -0.3 91
2019-10-07 06:00:00 3.4 3 Sudeste 9 Este 0 898.6 -1.1 91
2019-10-07 05:00:00 3.4 2 Sur 7 Nordeste 0 898.6 -1 91
2019-10-07 04:00:00 4.2 0 Calma 8 Sudeste 0 899 -0.6 91
2019-10-07 03:00:00 5.1 2 Norte 11 Sur 0 899.7 -0.1 89
2019-10-07 02:00:00 5.8 0 Calma 10 Sur 0 899.6 -0.2 89
2019-10-07 01:00:00 6.6 2 Norte 10 Sur 0 899.6 0 87
2019-10-07 00:00:00 7.8 2 Sudeste 12 Sur 0 899.8 0.8 85
2019-10-06 23:00:00 8.9 2 Este 7 Sudeste 0 899.8 0.9 81
2019-10-06 22:00:00 10.4 3 Noroeste 8 Sudoeste 0 899.6 0.9 76
2019-10-06 21:00:00 13.1 0 Calma 13 Noroeste 0 899 0.7 66
2019-10-06 20:00:00 15.9 7 Noroeste 27 Noroeste 0 898.9 0.9 57
2019-10-06 19:00:00 19 16 Oeste 34 Noroeste 0 898.7 0 43
2019-10-06 18:00:00 20.7 16 Noroeste 31 Noroeste 0 898.3 -0.7 38
2019-10-06 17:00:00 21.7 13 Noroeste 31 Noroeste 0 898 -1.7 39
2019-10-06 16:00:00 21.4 12 Oeste 27 Oeste 0 898.7 -1.3 39
2019-10-06 15:00:00 20.9 10 Oeste 22 Oeste 0 899 -1 36
2019-10-06 14:00:00 19 10 Noroeste 19 Oeste 0 899.7 0 48
2019-10-06 13:00:00 16.3 6 Noroeste 14 Noroeste 0 900 0.6 59
2019-10-06 12:00:00 14 4 Norte 12 Norte 0 900 1 69
2019-10-06 11:00:00 11.3 3 Norte 8 Noroeste 0 899.7 1.2 76
2019-10-06 10:00:00 7.5 2 Este 7 Sudeste 0 899.4 1.3 86
2019-10-06 09:00:00 3.9 3 Sudeste 15 Sur 0 899 1.3 91
2019-10-06 08:00:00 2.9 2 Este 13 Sur 0 898.5 0.9 89
2019-10-06 07:00:00 3.6 2 Este 10 Sur 0 898.1 0.1 90
2019-10-06 06:00:00 4.6 5 Sudeste 19 Sur 0 897.7 -0.2 90
2019-10-06 05:00:00 5.6 4 Sur 12 Sur 0 897.6 -0.3 90
2019-10-06 04:00:00 5.9 4 Sudeste 14 Sur 0 898 0 87
2019-10-06 03:00:00 6.4 9 Sur 15 Sur 0 897.9 0.3 87
2019-10-06 02:00:00 7.3 3 Sudeste 8 Sudeste 0 897.9 0.3 86
2019-10-06 01:00:00 7.4 4 Sur 9 Sur 0 898 0.7 84
2019-10-06 00:00:00 8.7 4 Sudeste 8 Sudeste 0 897.6 0.8 83
2019-10-05 23:00:00 9.4 2 Sudeste 4 Sudeste 0 897.6 1.3 78
2019-10-05 22:00:00 11.6 0 Calma 4 Este 0 897.3 1.3 72
2019-10-05 21:00:00 14.7 0 Calma 13 Sudoeste 0 896.8 1.2 63
2019-10-05 20:00:00 18.1 8 Oeste 12 Oeste 0 896.3 0.8 51
2019-10-05 19:00:00 22.3 7 Oeste 26 Oeste 0 896 0.4 36
2019-10-05 18:00:00 23.9 11 Noroeste 24 Oeste 0 895.6 -0.4 31
2019-10-05 17:00:00 24.2 10 Oeste 27 Oeste 0 895.5 -1.1 31
2019-10-05 16:00:00 23.9 13 Oeste 23 Oeste 0 895.6 -1.1 34
2019-10-05 15:00:00 23.3 10 Noroeste 23 Oeste 0 896 -0.7 40
2019-10-05 14:00:00 22.2 11 Oeste 21 Noroeste 0 896.6 -0.3 41
2019-10-05 13:00:00 20.7 13 Noroeste 24 Oeste 0 896.7 -0.1 48
2019-10-05 12:00:00 18.8 7 Noroeste 17 Noroeste 0 896.7 0.3 57
2019-10-05 11:00:00 13.9 3 Este 6 Nordeste 0 896.9 0.8 70
2019-10-05 10:00:00 9 4 Este 12 Sur 0 896.8 0.9 83
2019-10-05 09:00:00 4.6 2 Sudeste 9 Sur 0 896.4 0.3 88
2019-10-05 08:00:00 3.6 4 Sudeste 9 Sudeste 0 896.1 -0.2 91
2019-10-05 07:00:00 4.9 4 Sudeste 10 Sur 0 895.9 -0.6 90
2019-10-05 06:00:00 5.6 4 Sudeste 13 Sur 0 896.1 -0.7 91
2019-10-05 05:00:00 5.3 3 Este 11 Sur 0 896.3 -0.7 89
2019-10-05 04:00:00 6.7 4 Sudeste 12 Sur 0 896.5 -0.2 90
2019-10-05 03:00:00 7 4 Sudeste 7 Sudeste 0 896.8 0.1 90
2019-10-05 02:00:00 7.2 4 Sudeste 8 Sudeste 0 897 0.2 89
2019-10-05 01:00:00 8.7 0 Calma 14 Sur 0 896.7 0.3 81
2019-10-05 00:00:00 9.1 4 Sudeste 13 Sudeste 0 896.7 0.6 86
2019-10-04 23:00:00 9.8 2 Norte 5 Sudoeste 0 896.8 1.1 79
2019-10-04 22:00:00 12 0 Calma 4 Nordeste 0 896.4 0.9 71
2019-10-04 21:00:00 14.6 2 Oeste 18 Oeste 0 896.1 0.9 62
2019-10-04 20:00:00 18 9 Oeste 19 Noroeste 0 895.7 0.4 52
2019-10-04 19:00:00 21.4 10 Noroeste 23 Oeste 0 895.5 -0.4 42
2019-10-04 18:00:00 22.9 13 Oeste 28 Sudoeste 0 895.2 -1.3 38
2019-10-04 17:00:00 23.3 13 Oeste 28 Oeste 0 895.3 -1.9 39
2019-10-04 16:00:00 23.2 14 Oeste 26 Noroeste 0 895.9 -1.7 40
2019-10-04 15:00:00 21.8 10 Noroeste 23 Noroeste 0 896.5 -1.3 46
2019-10-04 14:00:00 21.1 10 Noroeste 24 Noroeste 0 897.2 -0.7 49
2019-10-04 13:00:00 19.9 13 Noroeste 26 Noroeste 0 897.6 -0.3 53
2019-10-04 12:00:00 18.7 11 Noroeste 21 Noroeste 0 897.8 -0.1 57
2019-10-04 11:00:00 14.3 0 Calma 11 Sudeste 0 897.9 0.1 63
2019-10-04 10:00:00 9.2 3 Sudeste 10 Sudeste 0 897.9 0.3 73
2019-10-04 09:00:00 4.8 6 Este 22 Sur 0 897.9 0.3 85
2019-10-04 08:00:00 3.3 3 Este 13 Sur 0 897.8 -0.2 85
2019-10-04 07:00:00 3.7 7 Sur 20 Sur 0 897.6 -0.5 88
2019-10-04 06:00:00 4.6 5 Sur 13 Sur 0 897.6 -0.8 83
2019-10-04 05:00:00 4.5 5 Sudeste 20 Sur 0 898 -0.6 86
2019-10-04 04:00:00 5.2 3 Sudeste 15 Sur 0 898.1 -0.6 82
2019-10-04 03:00:00 5.5 4 Sudeste 14 Sur 0 898.4 -0.2 85
2019-10-04 02:00:00 6 2 Sudoeste 13 Sur 0 898.6 0.2 81
2019-10-04 01:00:00 6.8 5 Sudeste 13 Sur 0 898.7 0.5 80
2019-10-04 00:00:00 8 5 Sudeste 11 Sur 0 898.6 0.7 76
2019-10-03 23:00:00 9.4 3 Sudeste 16 Sur 0 898.4 0.9 71
2019-10-03 22:00:00 10.9 5 Sudeste 14 Sur 0 898.2 0.8 65
2019-10-03 21:00:00 12.7 0 Calma 12 Noroeste 0 897.9 0.5 57
2019-10-03 20:00:00 16.7 3 Este 18 Oeste 0 897.5 -0.2 43
2019-10-03 19:00:00 20 8 Oeste 25 Noroeste 0 897.4 -0.4 33
2019-10-03 18:00:00 21.3 13 Oeste 26 Oeste 0 897.4 -0.4 30
2019-10-03 17:00:00 21.8 11 Oeste 32 Oeste 0 897.7 -0.3 32
2019-10-03 16:00:00 21.2 15 Noroeste 38 Oeste 0 897.8 -0.4 32
2019-10-03 15:00:00 20.6 13 Noroeste 31 Noroeste 0 897.8 -1.1 32
2019-10-03 14:00:00 19.4 14 Noroeste 27 Noroeste 0 898 -1 40
2019-10-03 13:00:00 17.5 10 Noroeste 30 Noroeste 0 898.2 -0.4 48
2019-10-03 12:00:00 15.1 12 Noroeste 26 Noroeste 0 898.9 0.4 57
2019-10-03 11:00:00 11.4 2 Nordeste 6 Oeste 0 899 1 72
2019-10-03 10:00:00 5.6 0 Calma 4 Sudoeste 0 898.6 0.9 87
2019-10-03 09:00:00 1.5 0 Calma 4 Oeste 0 898.5 0.7 90
2019-10-03 08:00:00 1.2 0 Calma 8 Sudeste 0 898 0.2 90
2019-10-03 07:00:00 2.1 5 Este 11 Sur 0 897.7 -0.2 92
2019-10-03 06:00:00 2.8 3 Sur 8 Sudeste 0 897.8 -0.7 92
2019-10-03 05:00:00 2.9 2 Sudeste 5 Sudeste 0 897.8 -0.8 92
2019-10-03 04:00:00 2.9 2 Este 11 Sur 0 897.9 -1.1 91
2019-10-03 03:00:00 3.3 0 Calma 7 Este 0 898.5 -0.7 90
2019-10-03 02:00:00 4.1 3 Sudeste 6 Este 0 898.6 -0.8 88
2019-10-03 01:00:00 4.8 2 Nordeste 10 Sudoeste 0 899 0.1 84
2019-10-03 00:00:00 8.3 9 Sur 14 Sur 0 899.2 0.5 77
2019-10-02 23:00:00 7 4 Sudeste 11 Sudeste 0 899.4 1.1 79
2019-10-02 22:00:00 8.3 4 Sudoeste 11 Sudoeste 0 898.9 1 74
2019-10-02 21:00:00 10.9 4 Sudeste 19 Oeste 0 898.7 1.1 65
2019-10-02 20:00:00 13 8 Noroeste 21 Noroeste 0 898.3 1 55
2019-10-02 19:00:00 16.3 10 Norte 26 Noroeste 0 897.9 0.6 45
2019-10-02 18:00:00 17.2 14 Noroeste 37 Noroeste 0 897.6 0.2 44
2019-10-02 17:00:00 18.4 12 Noroeste 35 Noroeste 0 897.3 0.1 40
2019-10-02 16:00:00 18.1 20 Noroeste 40 Noroeste 0 897.3 -0.6 41
2019-10-02 15:00:00 17.6 18 Noroeste 37 Noroeste 0 897.4 -0.3 43
2019-10-02 14:00:00 16.7 18 Noroeste 37 Oeste 0 897.2 -0.2 44
2019-10-02 13:00:00 15.2 16 Noroeste 30 Oeste 0 897.9 1.1 54
2019-10-02 12:00:00 14.2 12 Oeste 24 Oeste 0 897.7 1.6 57
2019-10-02 11:00:00 13.4 9 Oeste 19 Oeste 0 897.4 1.6 65
2019-10-02 10:00:00 9.3 2 Norte 8 Nordeste 0 896.8 1.5 83
2019-10-02 09:00:00 5.4 2 Sudoeste 9 Sur 0 896.1 1.2 90
2019-10-02 08:00:00 5 3 Oeste 8 Sur 0 895.8 1 91
2019-10-02 07:00:00 6.4 0 Calma 13 Noroeste 0 895.3 0.5 90
2019-10-02 06:00:00 8.2 5 Norte 13 Norte 0 894.9 -0.2 90
2019-10-02 05:00:00 9.2 6 Noroeste 24 Noroeste 0 894.8 -0.2 93
2019-10-02 04:00:00 9.9 14 Oeste 23 Noroeste 0 894.8 -0.7 93
2019-10-02 03:00:00 8.5 9 Oeste 18 Oeste 0 895.1 0.3 93
2019-10-02 02:00:00 6 0 Calma 6 Noroeste 0 895 0.4 87
2019-10-02 01:00:00 7 0 Calma 5 Nordeste 0 895.5 1.3 82
2019-10-02 00:00:00 8.3 0 Calma 6 Este 0 894.8 1.1 81
2019-10-01 23:00:00 9.9 0 Calma 13 Sudoeste 0 894.6 1.1 75
2019-10-01 22:00:00 11.6 4 Oeste 18 Sur 0 894.2 0.7 68
2019-10-01 21:00:00 14.1 0 Calma 16 Oeste 0 893.7 0.4 55
2019-10-01 20:00:00 17.2 9 Oeste 30 Oeste 0 893.5 0.2 46
2019-10-01 19:00:00 20 17 Oeste 37 Sudoeste 0 893.5 0 40
2019-10-01 18:00:00 21.1 15 Oeste 36 Oeste 0 893.3 -0.6 38
2019-10-01 17:00:00 19.5 12 Oeste 34 Oeste 0 893.3 -1.1 45
2019-10-01 16:00:00 21.4 18 Oeste 31 Oeste 0 893.5 -1 37
2019-10-01 15:00:00 19.7 20 Oeste 37 Noroeste 0 893.9 -1 44
2019-10-01 14:00:00 19.8 15 Oeste 30 Oeste 0 894.4 -0.2 52
2019-10-01 13:00:00 19.6 9 Noroeste 23 Oeste 0 894.5 0.4 54
2019-10-01 12:00:00 18.3 10 Noroeste 21 Noroeste 0 894.9 0.9 54
2019-10-01 11:00:00 16.4 2 Noroeste 7 Sudeste 0 894.6 0.9 54
2019-10-01 10:00:00 11.3 3 Sudeste 13 Sur 0 894.1 0.6 72
2019-10-01 09:00:00 7.1 2 Sudeste 13 Sur 0 894 0.5 85
2019-10-01 08:00:00 7.5 5 Sur 18 Sur 0 893.7 0 85
2019-10-01 07:00:00 7.2 8 Sur 13 Sur 0 893.5 -1.1 84
2019-10-01 06:00:00 7.3 4 Sudeste 16 Sur 0 893.5 -1.5 85
2019-10-01 05:00:00 8.3 9 Sur 18 Sur 0 893.7 -1.5 87
2019-10-01 04:00:00 8.1 5 Sudeste 18 Sur 0 894.6 -0.8 84
2019-10-01 03:00:00 9.1 4 Sudeste 19 Sur 0 895 -0.7 81
2019-10-01 02:00:00 9.6 5 Sudeste 19 Sur 0 895.2 -0.5 78
2019-10-01 01:00:00 10.1 9 Sur 17 Sur 0 895.4 -0.2 78
2019-10-01 00:00:00 11 7 Sur 16 Sur 0 895.7 0.3 75
2019-09-30 23:00:00 12.4 6 Sur 16 Sur 0 895.7 0.3 70
2019-09-30 22:00:00 14.2 5 Sur 11 Sur 0 895.6 0.3 63
2019-09-30 21:00:00 16.1 8 Sur 11 Sur 0 895.4 -0.1 56
2019-09-30 20:00:00 19.9 6 Sudoeste 14 Oeste 0 895.4 -0.6 42
2019-09-30 19:00:00 23.9 8 Oeste 22 Oeste 0 895.3 -1.1 30
2019-09-30 18:00:00 25.2 9 Oeste 23 Sudoeste 0 895.5 -1.2 28
2019-09-30 17:00:00 25.4 10 Oeste 25 Oeste 0 896 -1.5 32
2019-09-30 16:00:00 25.1 9 Oeste 24 Oeste 0 896.4 -1.6 31
2019-09-30 15:00:00 25.1 9 Oeste 24 Noroeste 0 896.7 -1.8 34
2019-09-30 14:00:00 24.1 9 Noroeste 20 Noroeste 0 897.5 -1 42
2019-09-30 13:00:00 21.7 7 Norte 17 Noroeste 0 898 0 49
2019-09-30 12:00:00 20 5 Noroeste 11 Noroeste 0 898.5 0.1 55
2019-09-30 11:00:00 16.9 0 Calma 6 Sudeste 0 898.5 0.5 63
2019-09-30 10:00:00 11.6 3 Sudeste 6 Nordeste 0 898 0.2 73
2019-09-30 09:00:00 6.5 0 Calma 9 Sudeste 0 898.4 0.4 83
2019-09-30 08:00:00 5.5 10 Sudeste 22 Sur 0 898 0.1 87
2019-09-30 07:00:00 6.2 3 Sudeste 10 Sur 0 897.8 -0.5 84
2019-09-30 06:00:00 6.1 2 Este 16 Sur 0 898 -0.7 81
2019-09-30 05:00:00 6.9 5 Este 12 Sur 0 897.9 -0.6 80
2019-09-30 04:00:00 7.2 4 Sudeste 14 Sur 0 898.3 -0.3 76
2019-09-30 03:00:00 7 3 Sudeste 10 Sur 0 898.7 0.1 78
2019-09-30 02:00:00 8.4 4 Sur 14 Sur 0 898.5 0 70
2019-09-30 01:00:00 9.3 6 Sudeste 15 Sur 0 898.6 0.3 66
2019-09-30 00:00:00 9.9 9 Sudeste 18 Sur 0 898.6 0.9 64
2019-09-29 23:00:00 11.8 3 Sur 12 Sur 0 898.5 1.2 57
2019-09-29 22:00:00 12.9 3 Sur 12 Sudeste 0 898.3 1.1 53
2019-09-29 21:00:00 15.1 2 Norte 20 Oeste 0 897.7 0.4 46
2019-09-29 20:00:00 19.8 12 Sudoeste 18 Oeste 0 897.3 -0.2 28
2019-09-29 19:00:00 23.8 10 Oeste 24 Oeste 0 897.2 -0.6 20
2019-09-29 18:00:00 25 13 Oeste 30 Noroeste 0 897.3 -1 18
2019-09-29 17:00:00 25.1 12 Sudoeste 31 Noroeste 0 897.5 -1.1 20
2019-09-29 16:00:00 24.8 11 Noroeste 30 Noroeste 0 897.8 -1 24
2019-09-29 15:00:00 24 18 Oeste 34 Oeste 0 898.3 -0.5 24
2019-09-29 14:00:00 23.3 14 Oeste 29 Oeste 0 898.6 -0.1 27
2019-09-29 13:00:00 22.4 12 Noroeste 30 Oeste 0 898.8 0.3 32
2019-09-29 12:00:00 20.2 4 Norte 9 Norte 0 898.8 0.6 39
2019-09-29 11:00:00 15.6 2 Nordeste 6 Sudeste 0 898.7 0.7 55
2019-09-29 10:00:00 9.8 4 Sudeste 18 Sur 0 898.5 0.6 67
2019-09-29 09:00:00 5.5 6 Sudeste 16 Sur 0 898.2 0.4 79
2019-09-29 08:00:00 4.3 7 Sudeste 16 Sur 0 898 0 83
2019-09-29 07:00:00 4.9 6 Sudeste 18 Sudeste 0 897.9 -0.6 82
2019-09-29 06:00:00 4.7 6 Sudeste 15 Sudeste 0 897.8 -1 83
2019-09-29 05:00:00 5.3 5 Sudeste 14 Sur 0 898 -0.9 80
2019-09-29 04:00:00 5.8 7 Sudeste 17 Sur 0 898.5 -0.5 79
2019-09-29 03:00:00 6.5 6 Sur 18 Sur 0 898.8 -0.4 78
2019-09-29 02:00:00 6.9 12 Sur 20 Sur 0 898.9 -0.1 76
2019-09-29 01:00:00 7.9 5 Sudeste 17 Sur 0 899 0.2 73
2019-09-29 00:00:00 8.8 8 Sur 14 Sur 0 899.2 0.6 70
2019-09-28 23:00:00 10.4 5 Sudeste 18 Sur 0 899 0.6 64
2019-09-28 22:00:00 11.8 6 Sur 14 Sur 0 898.8 0.3 57
2019-09-28 21:00:00 14.5 7 Sur 17 Sur 0 898.6 0.1 50
2019-09-28 20:00:00 18.5 8 Sudoeste 12 Sudoeste 0 898.4 -0.2 32
2019-09-28 19:00:00 23.4 8 Sudoeste 18 Oeste 0 898.5 -0.6 25
2019-09-28 18:00:00 24.7 9 Oeste 19 Oeste 0 898.5 -0.9 24
2019-09-28 17:00:00 24.7 12 Oeste 23 Noroeste 0 898.6 -1.3 19
2019-09-28 16:00:00 24.5 9 Oeste 22 Sudoeste 0 899.1 -1.3 23
2019-09-28 15:00:00 23.5 6 Sudoeste 22 Oeste 0 899.4 -1.2 25
2019-09-28 14:00:00 23 7 Sudoeste 20 Sudoeste 0 899.9 -0.7 24
2019-09-28 13:00:00 20.7 5 Norte 14 Norte 0 900.4 0.1 45
2019-09-28 12:00:00 18.6 4 Norte 12 Norte 0 900.6 0.6 53
2019-09-28 11:00:00 14.9 2 Este 8 Este 0 900.6 1 62
2019-09-28 10:00:00 9.6 4 Sudeste 13 Sur 0 900.3 0.5 77
2019-09-28 09:00:00 5.4 5 Sudeste 16 Sur 0 900 0.1 82
2019-09-28 08:00:00 4.4 5 Sudeste 15 Sur 0 899.6 -0.2 87
2019-09-28 07:00:00 4.4 7 Este 18 Sur 0 899.8 0 88
2019-09-28 06:00:00 4.9 2 Sudeste 15 Sur 0 899.9 0 83
2019-09-28 05:00:00 4.8 2 Sur 18 Sur 0 899.8 -0.1 83
2019-09-28 04:00:00 5.4 10 Sur 18 Sur 0 899.8 -0.2 80
2019-09-28 03:00:00 6.3 3 Sudeste 14 Sur 0 899.9 0.3 75
2019-09-28 02:00:00 6.8 7 Sur 16 Sur 0 899.9 0.4 73
2019-09-28 01:00:00 7.4 4 Sudeste 17 Sur 0 900 0.8 71
2019-09-28 00:00:00 8.4 5 Sudeste 13 Sur 0 899.6 0.8 67
2019-09-27 23:00:00 9.9 5 Sur 9 Sur 0 899.5 1 61
2019-09-27 22:00:00 11.3 4 Sur 8 Sur 0 899.2 0.8 54
2019-09-27 21:00:00 13.3 2 Norte 17 Oeste 0 898.8 0.6 48
2019-09-27 20:00:00 18 14 Sudoeste 22 Sudoeste 0 898.5 0.2 27
2019-09-27 19:00:00 20.6 11 Oeste 25 Oeste 0 898.4 0 23
2019-09-27 18:00:00 22.5 14 Oeste 30 Noroeste 0 898.2 -0.5 18
2019-09-27 17:00:00 23.1 12 Oeste 34 Noroeste 0 898.3 -0.7 23
2019-09-27 16:00:00 22.5 14 Oeste 31 Oeste 0 898.4 -0.9 22
2019-09-27 15:00:00 22.2 15 Noroeste 31 Noroeste 0 898.7 -1.1 25
2019-09-27 14:00:00 21.5 10 Oeste 23 Sudoeste 0 899 -0.7 28
2019-09-27 13:00:00 19.8 12 Noroeste 20 Noroeste 0 899.3 -0.1 33
2019-09-27 12:00:00 18.2 10 Noroeste 19 Noroeste 0 899.8 0.5 38
2019-09-27 11:00:00 14.8 2 Sudeste 7 Sudeste 0 899.7 0.7 58
2019-09-27 10:00:00 9.1 5 Este 12 Sudeste 0 899.4 0.6 74
2019-09-27 09:00:00 5.3 3 Sudeste 10 Sur 0 899.3 0.5 84
2019-09-27 08:00:00 3.9 4 Sur 12 Sur 0 899 0.2 88
2019-09-27 07:00:00 4.6 10 Sur 18 Sur 0 898.8 -0.1 86
2019-09-27 06:00:00 4.9 11 Sur 21 Sur 0 898.8 -0.5 85
2019-09-27 05:00:00 6 5 Sur 17 Sur 0 898.8 0 85
2019-09-27 04:00:00 6.2 5 Sudeste 14 Sur 0 898.9 -0.4 82
2019-09-27 03:00:00 6.8 5 Sur 18 Sur 0 899.3 -0.1 82
2019-09-27 02:00:00 7.9 6 Sudeste 18 Sur 0 898.8 -0.5 78
2019-09-27 01:00:00 8.5 7 Sur 16 Sur 0 899.3 0.3 77
2019-09-27 00:00:00 9.2 8 Sur 14 Sur 0 899.4 1.1 75
2019-09-26 23:00:00 10.9 3 Sur 12 Sur 0 899.3 1.3 69
2019-09-26 22:00:00 12 2 Sur 13 Sur 0 899 1.2 63
2019-09-26 21:00:00 14.8 4 Sur 18 Oeste 0 898.3 0.6 53
2019-09-26 20:00:00 19.4 12 Oeste 18 Oeste 0 898 0.1 30
2019-09-26 19:00:00 22.7 10 Oeste 21 Noroeste 0 897.8 -0.3 30
2019-09-26 18:00:00 23.7 11 Oeste 27 Oeste 0 897.7 -0.5 29
2019-09-26 17:00:00 23.6 16 Oeste 33 Noroeste 0 897.9 -0.6 29
2019-09-26 16:00:00 23.5 12 Oeste 31 Oeste 0 898.1 -0.7 32
2019-09-26 15:00:00 22.9 7 Oeste 22 Oeste 0 898.2 -0.9 37
2019-09-26 14:00:00 22.3 6 Sur 18 Sur 0 898.5 -0.7 40
2019-09-26 13:00:00 20.7 4 Sur 15 Noroeste 0 898.8 0 43
2019-09-26 12:00:00 18.9 5 Noroeste 14 Noroeste 0 899.1 0.5 53
2019-09-26 11:00:00 15.6 2 Nordeste 7 Sur 0 899.2 0.8 67
2019-09-26 10:00:00 10.3 6 Sudeste 12 Sur 0 898.8 0.4 81
2019-09-26 09:00:00 7 4 Sudeste 12 Sur 0 898.6 0.1 88
2019-09-26 08:00:00 5.4 4 Sudeste 9 Sudeste 0 898.4 0 90
2019-09-26 07:00:00 5.7 4 Sudeste 16 Sur 0 898.4 0.1 90
2019-09-26 06:00:00 6.1 4 Sudeste 12 Sur 0 898.5 -0.3 90
2019-09-26 05:00:00 6.3 4 Sur 12 Sur 0 898.4 0.3 90
2019-09-26 04:00:00 6.5 4 Sudeste 12 Sur 0 898.3 -0.2 88
2019-09-26 03:00:00 7.3 9 Sur 13 Sur 0 898.8 0.3 89
2019-09-26 02:00:00 7.7 6 Sudeste 13 Sur 0 898.1 -0.3 89
2019-09-26 01:00:00 8.2 6 Este 19 Sur 0 898.5 0.5 87
2019-09-26 00:00:00 8.9 10 Sur 13 Sur 0 898.5 0.8 86
2019-09-25 23:00:00 10.1 10 Sur 15 Sur 0 898.4 0.9 81
2019-09-25 22:00:00 11.1 6 Sudeste 11 Sur 0 898 0.7 77
2019-09-25 21:00:00 12.2 2 Noroeste 12 Oeste 0 897.7 0.6 72
2019-09-25 20:00:00 14.7 9 Sudoeste 13 Sudoeste 0 897.5 0.5 60
2019-09-25 19:00:00 17 7 Noroeste 17 Oeste 0 897.3 0 52
2019-09-25 18:00:00 17.5 7 Noroeste 21 Noroeste 0 897.1 -0.4 52
2019-09-25 17:00:00 18 13 Noroeste 27 Noroeste 0 897 -0.8 48
2019-09-25 16:00:00 18.5 10 Oeste 25 Oeste 0 897.3 -0.7 47
2019-09-25 15:00:00 18.1 9 Oeste 26 Oeste 0 897.5 -0.8 46
2019-09-25 14:00:00 17.3 8 Noroeste 26 Oeste 0 897.8 -0.2 52
2019-09-25 13:00:00 16.1 10 Oeste 25 Sudoeste 0 898 0.6 54
2019-09-25 12:00:00 14.3 9 Noroeste 21 Oeste 0 898.3 1.1 61
2019-09-25 11:00:00 13 8 Oeste 13 Oeste 0 898 1.1 62
2019-09-25 10:00:00 10.5 4 Noroeste 8 Noroeste 0 897.4 0.7 77
2019-09-25 09:00:00 6.7 0 Calma 6 Sur 0 897.2 0.6 87
2019-09-25 08:00:00 6.6 2 Oeste 12 Sudeste 0 896.9 0.7 86
2019-09-25 07:00:00 8 5 Oeste 16 Oeste 0 896.7 0.3 81
2019-09-25 06:00:00 9.3 9 Oeste 17 Oeste 0 896.6 0 77
2019-09-25 05:00:00 10.5 9 Oeste 20 Noroeste 0 896.2 -0.2 72
2019-09-25 04:00:00 11.5 13 Oeste 26 Oeste 0 896.4 -0.1 72
2019-09-25 03:00:00 12.5 14 Oeste 26 Oeste 0 896.6 -0.1 72
2019-09-25 02:00:00 13.5 7 Oeste 20 Sudoeste 0 896.4 -0.3 70
2019-09-25 01:00:00 14.2 9 Oeste 23 Oeste 0 896.5 -0.2 69
2019-09-25 00:00:00 14.6 6 Oeste 31 Sudoeste 0 896.7 0.4 78
2019-09-24 23:00:00 15.4 13 Oeste 23 Sudoeste 0 896.7 0.6 80
2019-09-24 22:00:00 15.3 13 Sudoeste 22 Oeste 0 896.7 0.8 70
2019-09-24 21:00:00 16.5 11 Sudoeste 28 Oeste 0 896.3 0.1 66
2019-09-24 20:00:00 17.8 16 Oeste 36 Oeste 0 896.1 -0.4 63
2019-09-24 19:00:00 18.3 19 Oeste 33 Sudoeste 0 895.9 -1.2 62
2019-09-24 18:00:00 18.2 14 Oeste 32 Sudoeste 0 896.2 -1.2 66
2019-09-24 17:00:00 17.4 12 Oeste 28 Sudoeste 0 896.5 -1.5 70
2019-09-24 16:00:00 15.7 7 Este 16 Nordeste 0 897.1 -1.4 72
2019-09-24 15:00:00 14.5 11 Este 18 Este 0 897.4 -1.4 75
2019-09-24 14:00:00 14.3 10 Nordeste 14 Este 0 898 -0.7 75
2019-09-24 13:00:00 13.9 2 Sudeste 14 Noroeste 0 898.5 0.3 74
2019-09-24 12:00:00 13.2 6 Noroeste 36 Oeste 0 898.8 0.7 76
2019-09-24 11:00:00 13.6 5 Oeste 14 Noroeste 0 898.7 0.9 75
2019-09-24 10:00:00 11.1 2 Sudeste 10 Este 0 898.2 0.3 81
2019-09-24 09:00:00 6.3 9 Sudeste 20 Sur 0 898.1 0.4 89
2019-09-24 08:00:00 5.7 9 Sur 17 Sur 0 897.8 0 90
2019-09-24 07:00:00 6.1 2 Sudeste 10 Sur 0 897.9 -0.5 90
2019-09-24 06:00:00 6.3 5 Sudeste 15 Sur 0 897.7 -0.8 90
2019-09-24 05:00:00 7.2 3 Sudeste 17 Sur 0 897.8 -0.9 90
2019-09-24 04:00:00 7.6 6 Sur 15 Sur 0 898.4 -0.6 90
2019-09-24 03:00:00 7.8 5 Sudeste 13 Sudeste 0 898.5 -0.7 89
2019-09-24 02:00:00 8.7 4 Sudeste 14 Sur 0 898.7 -0.8 88
2019-09-24 01:00:00 9.6 5 Sur 15 Sur 0 899 -0.3 87
2019-09-24 00:00:00 10.3 4 Sur 10 Sur 0 899.2 0.1 83
2019-09-23 23:00:00 10.8 8 Sur 12 Sur 0 899.5 0.8 82
2019-09-23 22:00:00 11.8 4 Sudeste 13 Sur 0 899.3 0.8 76
2019-09-23 21:00:00 13.4 10 Sur 14 Sur 0 899.1 0.7 69
2019-09-23 20:00:00 15.8 6 Sudoeste 15 Oeste 0 898.7 0.1 56
2019-09-23 19:00:00 18.9 6 Oeste 21 Sudoeste 0 898.5 -0.4 43
2019-09-23 18:00:00 20.1 9 Noroeste 23 Oeste 0 898.4 -0.2 38
2019-09-23 17:00:00 19.7 8 Oeste 17 Noroeste 0 898.6 -0.6 41
2019-09-23 16:00:00 18.8 9 Noroeste 22 Noroeste 0 898.9 -0.5 41
2019-09-23 15:00:00 17.6 5 Sur 24 Sudoeste 0 898.6 -0.9 47
2019-09-23 14:00:00 16.8 8 Oeste 24 Noroeste 0 899.2 0.1 55
2019-09-23 13:00:00 15.7 8 Noroeste 15 Noroeste 0 899.4 0 57
2019-09-23 12:00:00 13.6 3 Norte 7 Sudeste 0 899.5 0.4 67
2019-09-23 11:00:00 10.3 2 Sudeste 9 Sur 0 899.1 0.2 84
2019-09-23 10:00:00 7.6 2 Sur 8 Sur 0 899.4 1.3 90
2019-09-23 09:00:00 5 8 Sur 11 Sur 0 899.1 1.2 90
2019-09-23 08:00:00 3.9 7 Sur 16 Sur 0 898.9 1.1 92
2019-09-23 07:00:00 4.1 4 Sudeste 13 Sur 0 898.1 0.7 91
2019-09-23 06:00:00 4.4 6 Sur 13 Sur 0 897.9 0.4 91
2019-09-23 05:00:00 4.6 4 Sudeste 10 Sudeste 0 897.8 0.3 91
2019-09-23 04:00:00 5.2 6 Sudeste 13 Sur 0 897.4 0.6 91
2019-09-23 03:00:00 5.9 3 Sudeste 8 Sur 0 897.5 0.5 90
2019-09-23 02:00:00 6.8 3 Sudeste 8 Sur 0 897.5 0.6 90
2019-09-23 01:00:00 7.5 4 Sudeste 17 Sudeste 0 896.8 0.4 89
2019-09-23 00:00:00 8.6 4 Sudeste 12 Sur 0 897 1.4 87
2019-09-22 23:00:00 9.4 4 Sur 11 Sur 0 896.9 1.8 84
2019-09-22 22:00:00 10.3 2 Sur 9 Sudoeste 0 896.4 1.5 78
2019-09-22 21:00:00 13.2 6 Oeste 17 Sudoeste 0 895.6 1.1 61
2019-09-22 20:00:00 14.6 9 Oeste 24 Oeste 0 895.1 0.8 57
2019-09-22 19:00:00 15.7 8 Oeste 23 Oeste 0 894.9 0.5 54
2019-09-22 18:00:00 16 11 Oeste 30 Oeste 0 894.5 0.2 54
2019-09-22 17:00:00 16.5 15 Oeste 33 Noroeste 0 894.3 -0.1 53
2019-09-22 16:00:00 17.1 17 Oeste 37 Oeste 0 894.4 0.2 52
2019-09-22 15:00:00 15.1 16 Oeste 37 Sudoeste 0 894.3 0.2 62
2019-09-22 14:00:00 14.2 11 Oeste 28 Oeste 0 894.4 0.6 66
2019-09-22 13:00:00 13.4 9 Oeste 23 Oeste 0 894.2 0.6 75
2019-09-22 12:00:00 12.1 10 Oeste 23 Noroeste 0 894.1 1.3 79
2019-09-22 11:00:00 11.8 9 Oeste 22 Sudoeste 0 893.8 1.6 84
2019-09-22 10:00:00 10.7 10 Sudoeste 22 Oeste 0 893.6 2 87
2019-09-22 09:00:00 10.5 7 Oeste 22 Oeste 0 892.8 1.8 90
2019-09-22 08:00:00 10.4 12 Oeste 29 Oeste 1 892.2 1.7 88
2019-09-22 07:00:00 10.9 9 Oeste 35 Noroeste 1.2 891.6 1 91
2019-09-22 06:00:00 12.4 18 Oeste 36 Oeste 1.2 891 0.5 89
2019-09-22 05:00:00 14 2 Sudeste 10 Sur 1.4 890.5 -0.3 88
2019-09-22 04:00:00 14.4 4 Sudeste 14 Sudeste 0.4 890.6 -0.5 83
2019-09-22 03:00:00 14.8 8 Sudeste 17 Este 0 890.5 -0.8 79
2019-09-22 02:00:00 14.6 3 Sudeste 9 Sur 0 890.8 -0.6 84
2019-09-22 01:00:00 14.5 0 Calma 6 Este 0 891.1 -0.4 87
2019-09-22 00:00:00 14.9 4 Sudeste 8 Sudeste 0 891.3 0 84
2019-09-21 23:00:00 14.7 3 Sudeste 9 Este 0 891.4 0 86
2019-09-21 22:00:00 14.8 2 Sudeste 6 Este 0 891.5 0 86
2019-09-21 21:00:00 15 3 Este 12 Sudeste 0 891.3 -0.2 82
2019-09-21 20:00:00 15 5 Este 18 Sudoeste 0 891.4 -0.2 82
2019-09-21 19:00:00 15.5 5 Sudoeste 30 Sudoeste 0 891.5 -0.2 79
2019-09-21 18:00:00 16.8 7 Sudoeste 22 Sur 0 891.5 -0.3 72
2019-09-21 17:00:00 17.1 8 Sudoeste 23 Sudoeste 0 891.6 -0.6 69
2019-09-21 16:00:00 17.4 13 Sudoeste 26 Sudoeste 0 891.7 -0.7 64
2019-09-21 15:00:00 18.3 9 Sur 23 Sur 0 891.8 -0.8 57
2019-09-21 14:00:00 18.7 8 Sur 21 Sur 0 892.2 -0.5 55
2019-09-21 13:00:00 18 11 Sur 24 Sudoeste 0 892.4 -0.2 58
2019-09-21 12:00:00 17.1 4 Sudoeste 17 Sudeste 0 892.6 -0.1 70
2019-09-21 11:00:00 17.6 4 Sur 15 Este 0 892.7 -0.1 68
2019-09-21 10:00:00 15 4 Este 7 Este 0.2 892.6 -0.3 85
2019-09-21 09:00:00 12.6 3 Sudeste 6 Sudeste 0 892.7 0.1 92
2019-09-21 08:00:00 12.1 4 Sur 12 Sur 0 892.8 0.1 90
2019-09-21 07:00:00 12.7 2 Sudeste 19 Este 0.2 892.9 -0.3 87
2019-09-21 06:00:00 12.7 10 Sudeste 15 Sudeste 0 892.6 -1 85
2019-09-21 05:00:00 12.4 10 Sudeste 19 Sudeste 0 892.7 -0.4 86
2019-09-21 04:00:00 12.4 10 Sudeste 16 Este 0 893.2 -1.5 87
2019-09-21 03:00:00 12.6 10 Sudeste 17 Este 0 893.6 -1.1 88
2019-09-21 02:00:00 13 5 Este 19 Sudeste 1.6 893.1 -1 90
2019-09-21 01:00:00 13.5 11 Este 25 Sudoeste 3.4 894.7 0.7 88
2019-09-21 00:00:00 14.4 9 Oeste 28 Oeste 1.8 894.7 0.5 84
2019-09-20 23:00:00 14.7 13 Este 22 Este 0 894.1 0.1 85
2019-09-20 22:00:00 14.4 12 Este 23 Sudeste 0 894 0.9 82
2019-09-20 21:00:00 14.8 9 Sudeste 42 Este 0 894.2 0.6 76
2019-09-20 20:00:00 15.9 22 Este 48 Sudeste 0 894 0.3 71
2019-09-20 19:00:00 21.2 6 Sudeste 30 Sudeste 0 893.1 -1.1 52
2019-09-20 18:00:00 22.2 14 Sudeste 31 Sudeste 0 893.6 -1.4 48
2019-09-20 17:00:00 21.7 15 Sudeste 38 Sudeste 0 893.7 -1.8 48
2019-09-20 16:00:00 23 14 Sudeste 40 Este 0 894.2 -1.6 41
2019-09-20 15:00:00 21.9 13 Sudeste 35 Sudeste 0 895 -1.2 50
2019-09-20 14:00:00 22.3 14 Sudeste 32 Sudeste 0 895.5 -1 51
2019-09-20 13:00:00 20.4 13 Sudeste 36 Este 0 895.8 -0.7 56
2019-09-20 12:00:00 20.9 16 Sudeste 33 Este 0 896.2 0 57
2019-09-20 11:00:00 19.4 14 Este 27 Sudeste 0 896.5 0.5 62
2019-09-20 10:00:00 17.5 13 Este 24 Este 0 896.5 0.6 71
2019-09-20 09:00:00 14.9 9 Sudeste 16 Sudeste 0 896.2 0.2 77
2019-09-20 08:00:00 12.9 7 Sudeste 17 Este 0 896 -0.3 85
2019-09-20 07:00:00 12.9 2 Sudeste 18 Este 0 895.9 -0.5 84
2019-09-20 06:00:00 15.1 12 Sudeste 21 Sudeste 0 896 -0.7 75
2019-09-20 05:00:00 14.8 8 Sudeste 16 Sudeste 0 896.3 -0.5 76
2019-09-20 04:00:00 13.7 0 Calma 8 Sur 0 896.4 -0.6 82
2019-09-20 03:00:00 13.6 4 Sur 8 Sudeste 0 896.7 -0.6 83
2019-09-20 02:00:00 14.8 9 Este 16 Este 0 896.8 -0.5 76
2019-09-20 01:00:00 14.8 10 Este 21 Este 0 897 0.2 76
2019-09-20 00:00:00 13.4 0 Calma 15 Sur 0 897.3 1.3 81